Quaker Hill, CT

10:48 AM EDT on October 01, 2014 (GMT -0400)
Chester | Change Station
CLOSE
Current Station
Airport
Location: Chester,
Elevation: 413 ft
Nearby Weather Stations

Elev 413 ft 41.38 °N, 72.51 °W | Updated 1 hour ago

Overcast
Overcast
57 °F
Feels Like 57 °F
N
6
Wind Variable Wind from North

Today
High -- | Low -- °F
--% Chance of Precip.
Yesterday
High -- | Low -- °F
Precip. -- in
6:45 AM 6:30 PM
Waxing Crescent, 48% visible
Pressure 30.05 in
Visibility 2.0 miles
Clouds Overcast 300 ft
Dew Point 55 °F
Humidity 94%
Rainfall 3.71 in
Snow Depth Not available.
UV 1 out of 12
Pollen .40 out of 12
Ozone Good
PM2.5 Good
Flu Activity Not available.
METAR KSNC 011335Z AUTO 35005KT 2SM +RA OVC003 14/13 A3005 RMK AO2 P0031

More Conditions Fewer Conditions

Pressure 30.05 in
Visibility 2.0 miles
Clouds Overcast 300 ft
Dew Point 55 °F
Humidity 94%
Rainfall 3.71 in
Snow Depth Not available.
UV 1 out of 12
Pollen .40 out of 12
Ozone Good
PM2.5 Good
Flu Activity Not available.
METAR KSNC 011335Z AUTO 35005KT 2SM +RA OVC003 14/13 A3005 RMK AO2 P0031

More Conditions Fewer Conditions

10-Day Weather Forecast

Almanac

Astronomy

Oct. 01, 2014 Rise Set
Actual Time 6:45 AM EDT 6:30 PM EDT
Civil Twilight 6:17 AM EDT 6:57 PM EDT
Nautical Twilight 5:45 AM EDT 7:29 PM EDT
Astronomical Twilight 5:13 AM EDT 8:02 PM EDT
Moon 1:46 PM EDT 11:56 PM EDT
Length of Visible Light 12h 40m
Length of Day
11h 45m
Tomorrow will be 2m 44s shorter.
Waxing Crescent, 48% of the Moon is Illuminated
Today
Waxing Crescent
Oct 1
First Quarter
Oct 8
Full
Oct 15
Last Quarter
Oct 23
New

Today's Extremes

State Highs State Lows

Community

WunderPhotos

Upload Photos

1,757,960 photos uploaded!

Nearby

Air Quality

  Air Quality AQ Index Pollutant
Yesterday Good
PM2.5
Yesterday Good
OZONE
Current Good
PM2.5
Current Good
OZONE
Wednesday Good
PM2.5
Wednesday Good
OZONE

Snow Depth

Station Depth Elevation
No new snow has been reported.

Earthquake Activity

City Distance Mag. Time & Date
No recent earthquake activity has been reported nearby.
Minimum magnitude displayed is 2.5.

Coastal Water Temperatures

Place Temperature
New London, CT 66.0 °F
Newport, RI 64.0 °F
Quonset Point, RI 66.0 °F
Conimicut Light, RI 66.0 °F
Providence, RI 64.9 °F

Nearby Weather Stations